Time;durP1;ratioP1;P1;durP2;ratioP2;P2;SDS_P1;SDS_P2;PMS_P1;PMS_P2;Temp;Humidity;BMP_temperature;BMP_pressure;BME280_temperature;BME280_humidity;BME280_pressure;Samples;Min_cycle;Max_cycle;Signal;HPM_P1;HPM_P2
2022/12/07 00:01:33;;;;;;;412.70;168.17;;;;;;;;;;4992909;28;20180;-72
2022/12/07 00:04:04;;;;;;;485.93;191.63;;;;;;;;;;4992609;28;20264;-72
2022/12/07 00:06:31;;;;;;;396.07;159.13;;;;;;;;;;4993263;28;20217;-72
2022/12/07 00:08:57;;;;;;;466.17;181.50;;;;;;;;;;4981807;28;20751;-72
2022/12/07 00:11:23;;;;;;;539.37;206.33;;;;;;;;;;4992392;28;20515;-73
2022/12/07 00:14:00;;;;;;;567.37;231.97;;;;;;;;;;4993021;28;20192;-73
2022/12/07 00:16:28;;;;;;;387.03;158.70;;;;;;;;;;4975976;28;20246;-73
2022/12/07 00:18:54;;;;;;;414.20;170.33;;;;;;;;;;4986496;28;20311;-73
2022/12/07 00:21:22;;;;;;;491.23;191.07;;;;;;;;;;4996282;28;20220;-72
2022/12/07 00:23:49;;;;;;;501.17;202.20;;;;;;;;;;4986865;28;20228;-72
2022/12/07 00:26:19;;;;;;;492.20;192.27;;;;;;;;;;5005051;28;20257;-72
2022/12/07 00:28:52;;;;;;;353.27;146.70;;;;;;;;;;4991157;28;20258;-72
2022/12/07 00:31:22;;;;;;;419.90;173.57;;;;;;;;;;4994647;28;20382;-72
2022/12/07 00:33:50;;;;;;;413.20;167.50;;;;;;;;;;4986920;28;20319;-75
2022/12/07 00:36:17;;;;;;;476.17;197.03;;;;;;;;;;4991449;28;20215;-73
2022/12/07 00:38:49;;;;;;;431.17;176.33;;;;;;;;;;4989874;28;20228;-73
2022/12/07 00:41:17;;;;;;;528.83;211.03;;;;;;;;;;4978952;28;20566;-74
2022/12/07 00:43:44;;;;;;;391.83;168.47;;;;;;;;;;4975783;28;20251;-73
2022/12/07 00:46:10;;;;;;;516.17;203.77;;;;;;;;;;5009786;28;20212;-73
2022/12/07 00:48:36;;;;;;;503.57;204.87;;;;;;;;;;4978565;28;20261;-73
2022/12/07 00:51:06;;;;;;;449.40;178.60;;;;;;;;;;4999441;28;20271;-73
2022/12/07 00:53:34;;;;;;;378.27;153.90;;;;;;;;;;4995593;28;20221;-73
2022/12/07 00:56:05;;;;;;;400.40;160.70;;;;;;;;;;4978307;28;20589;-73
2022/12/07 00:58:31;;;;;;;494.10;190.73;;;;;;;;;;4997942;28;20259;-73
2022/12/07 01:00:59;;;;;;;424.73;171.90;;;;;;;;;;4995271;28;20678;-73
2022/12/07 01:03:25;;;;;;;511.53;207.20;;;;;;;;;;4997570;28;20225;-73
2022/12/07 01:05:53;;;;;;;409.70;162.80;;;;;;;;;;4980769;28;20743;-74
2022/12/07 01:08:19;;;;;;;399.87;163.30;;;;;;;;;;5001137;28;20220;-73
2022/12/07 01:10:45;;;;;;;413.10;166.83;;;;;;;;;;4977890;28;20487;-73
2022/12/07 01:13:11;;;;;;;499.70;200.40;;;;;;;;;;4980829;28;20315;-73
2022/12/07 01:15:41;;;;;;;535.33;220.77;;;;;;;;;;4997914;28;20570;-73
2022/12/07 01:18:07;;;;;;;456.93;189.47;;;;;;;;;;4969678;28;20310;-73
2022/12/07 01:20:33;;;;;;;450.47;181.47;;;;;;;;;;5004603;28;20212;-72
2022/12/07 01:23:02;;;;;;;401.53;161.97;;;;;;;;;;4985928;28;20199;-73
2022/12/07 01:25:28;;;;;;;380.70;159.10;;;;;;;;;;5007636;28;20237;-73
2022/12/07 01:27:54;;;;;;;454.70;178.63;;;;;;;;;;5005447;28;20228;-73
2022/12/07 01:30:20;;;;;;;533.47;216.47;;;;;;;;;;4993473;28;20213;-72
2022/12/07 01:32:46;;;;;;;523.33;215.67;;;;;;;;;;4976180;28;20223;-75
2022/12/07 01:35:12;;;;;;;397.63;160.10;;;;;;;;;;4969911;28;20181;-74
2022/12/07 01:37:38;;;;;;;527.33;215.30;;;;;;;;;;4976903;28;20636;-74
2022/12/07 01:40:08;;;;;;;424.37;175.33;;;;;;;;;;4984376;28;20890;-72
2022/12/07 01:42:34;;;;;;;455.23;184.97;;;;;;;;;;4969463;28;20299;-72
2022/12/07 01:45:19;;;;;;;448.43;178.53;;;;;;;;;;4999832;28;20224;-72
2022/12/07 01:47:52;;;;;;;534.33;210.37;;;;;;;;;;4999054;28;20790;-73
2022/12/07 01:50:19;;;;;;;419.00;171.47;;;;;;;;;;4983999;28;20221;-73
2022/12/07 01:52:46;;;;;;;411.27;171.50;;;;;;;;;;5003817;28;20184;-73
2022/12/07 01:55:13;;;;;;;493.83;200.13;;;;;;;;;;4992504;28;20318;-73
2022/12/07 01:57:57;;;;;;;459.13;183.17;;;;;;;;;;4994392;28;20283;-73
2022/12/07 02:00:23;;;;;;;418.80;161.73;;;;;;;;;;4994311;28;20220;-73
2022/12/07 02:03:08;;;;;;;405.13;160.93;;;;;;;;;;4992015;28;20856;-73
2022/12/07 02:05:36;;;;;;;416.57;171.23;;;;;;;;;;4971963;28;20254;-73
2022/12/07 02:08:02;;;;;;;392.17;162.07;;;;;;;;;;4998232;28;20862;-73
2022/12/07 02:10:29;;;;;;;501.27;194.90;;;;;;;;;;4995222;28;20185;-73
2022/12/07 02:13:01;;;;;;;405.23;164.57;;;;;;;;;;4992509;28;20308;-73
2022/12/07 02:15:39;;;;;;;498.90;190.13;;;;;;;;;;4988955;28;20217;-73
2022/12/07 02:18:13;;;;;;;450.80;183.70;;;;;;;;;;4977486;28;20219;-73
2022/12/07 02:20:52;;;;;;;494.27;198.43;;;;;;;;;;4974083;28;20221;-73
2022/12/07 02:23:21;;;;;;;387.63;153.13;;;;;;;;;;4986117;28;20453;-73
2022/12/07 02:25:58;;;;;;;415.97;168.90;;;;;;;;;;4994009;28;20187;-73
2022/12/07 02:28:38;;;;;;;457.43;174.43;;;;;;;;;;4982417;28;20350;-73
2022/12/07 02:31:10;;;;;;;523.17;205.47;;;;;;;;;;4990569;28;20268;-72
2022/12/07 02:33:45;;;;;;;522.00;210.13;;;;;;;;;;4988818;28;20629;-73
2022/12/07 02:36:17;;;;;;;437.13;175.53;;;;;;;;;;4990205;28;20230;-73
2022/12/07 02:39:04;;;;;;;508.30;202.13;;;;;;;;;;4969818;28;21265;-73
2022/12/07 02:41:40;;;;;;;516.17;211.87;;;;;;;;;;4963034;28;20262;-72
2022/12/07 02:44:13;;;;;;;477.87;186.67;;;;;;;;;;4964942;28;20244;-72
2022/12/07 02:46:43;;;;;;;373.73;150.37;;;;;;;;;;5003405;28;20208;-73
2022/12/07 02:49:09;;;;;;;513.73;200.27;;;;;;;;;;4983444;28;20216;-73
2022/12/07 02:51:39;;;;;;;400.73;155.03;;;;;;;;;;4989918;28;20313;-73
2022/12/07 02:54:12;;;;;;;441.37;175.30;;;;;;;;;;4993375;28;20282;-73
2022/12/07 02:56:44;;;;;;;421.97;166.53;;;;;;;;;;4987597;28;20217;-73
2022/12/07 02:59:39;;;;;;;367.97;153.67;;;;;;;;;;4989379;28;20573;-74
2022/12/07 03:02:22;;;;;;;481.27;184.30;;;;;;;;;;4992020;28;20261;-73
2022/12/07 03:05:14;;;;;;;384.77;152.87;;;;;;;;;;4978901;28;20223;-73
2022/12/07 03:07:50;;;;;;;448.70;178.50;;;;;;;;;;4978809;28;20232;-74
2022/12/07 03:10:16;;;;;;;466.40;185.17;;;;;;;;;;4989437;28;20249;-73
2022/12/07 03:12:49;;;;;;;517.40;209.50;;;;;;;;;;4966732;28;20317;-73
2022/12/07 03:15:22;;;;;;;476.60;187.17;;;;;;;;;;4969518;28;20216;-73
2022/12/07 03:17:49;;;;;;;364.70;141.07;;;;;;;;;;4971057;28;20212;-73
2022/12/07 03:20:17;;;;;;;348.60;137.17;;;;;;;;;;5005585;28;20216;-73
2022/12/07 03:22:44;;;;;;;414.23;169.10;;;;;;;;;;4999625;28;20186;-73
2022/12/07 03:25:12;;;;;;;508.10;194.23;;;;;;;;;;4968351;28;20224;-73
2022/12/07 03:27:41;;;;;;;386.97;151.10;;;;;;;;;;4992111;28;20221;-73
2022/12/07 03:30:17;;;;;;;483.17;183.70;;;;;;;;;;4984896;28;20755;-73
2022/12/07 03:32:43;;;;;;;321.53;135.80;;;;;;;;;;4993654;28;20306;-73
2022/12/07 03:35:22;;;;;;;494.00;188.63;;;;;;;;;;4966281;28;20189;-73
2022/12/07 03:37:59;;;;;;;505.23;197.90;;;;;;;;;;4995855;28;20212;-74
2022/12/07 03:40:31;;;;;;;467.23;177.50;;;;;;;;;;4992819;28;20219;-74
2022/12/07 03:42:59;;;;;;;439.43;170.03;;;;;;;;;;4988302;28;20252;-72
2022/12/07 03:45:31;;;;;;;531.33;208.67;;;;;;;;;;4963796;28;20763;-74
2022/12/07 03:48:16;;;;;;;372.93;150.37;;;;;;;;;;4971421;28;20363;-72
2022/12/07 03:50:47;;;;;;;579.50;206.87;;;;;;;;;;4997158;28;20220;-72
2022/12/07 03:53:19;;;;;;;369.63;139.83;;;;;;;;;;4992436;28;20282;-72
2022/12/07 03:55:47;;;;;;;438.03;163.73;;;;;;;;;;4992904;28;20193;-73
2022/12/07 03:58:15;;;;;;;461.90;179.37;;;;;;;;;;4991798;28;20259;-73
2022/12/07 04:00:42;;;;;;;385.57;148.60;;;;;;;;;;4998215;28;20283;-73
2022/12/07 04:03:08;;;;;;;486.67;170.53;;;;;;;;;;4991173;28;20221;-73
2022/12/07 04:05:34;;;;;;;416.57;150.43;;;;;;;;;;4994741;28;20224;-73
2022/12/07 04:08:00;;;;;;;521.50;188.90;;;;;;;;;;4991442;28;20205;-73
2022/12/07 04:10:26;;;;;;;482.10;179.63;;;;;;;;;;4980776;28;20606;-73
2022/12/07 04:12:52;;;;;;;502.80;182.13;;;;;;;;;;4998941;28;20240;-73
2022/12/07 04:15:18;;;;;;;539.50;205.87;;;;;;;;;;4992708;28;20224;-73
2022/12/07 04:17:44;;;;;;;510.23;194.13;;;;;;;;;;5001397;28;20223;-73
2022/12/07 04:20:10;;;;;;;369.23;142.97;;;;;;;;;;4998158;28;20193;-73
2022/12/07 04:22:36;;;;;;;388.70;149.37;;;;;;;;;;4970340;28;20194;-72
2022/12/07 04:25:02;;;;;;;542.33;194.07;;;;;;;;;;4969654;28;20255;-72
2022/12/07 04:27:28;;;;;;;475.40;175.60;;;;;;;;;;5013004;28;20219;-73
2022/12/07 04:29:55;;;;;;;480.53;181.73;;;;;;;;;;4989018;28;20704;-72
2022/12/07 04:32:21;;;;;;;474.47;180.83;;;;;;;;;;4971030;28;20214;-73
2022/12/07 04:34:47;;;;;;;494.17;188.40;;;;;;;;;;4982609;28;20363;-73
2022/12/07 04:37:13;;;;;;;464.73;175.93;;;;;;;;;;4975734;28;20982;-72
2022/12/07 04:39:39;;;;;;;485.03;170.87;;;;;;;;;;4965968;28;20212;-73
2022/12/07 04:42:05;;;;;;;485.50;168.03;;;;;;;;;;4994437;28;20635;-73
2022/12/07 04:44:31;;;;;;;433.33;149.00;;;;;;;;;;4977443;28;20228;-73
2022/12/07 04:46:57;;;;;;;526.97;169.37;;;;;;;;;;4979836;28;20738;-73
2022/12/07 04:49:24;;;;;;;393.97;147.27;;;;;;;;;;5000371;28;20242;-73
2022/12/07 04:51:50;;;;;;;466.77;168.93;;;;;;;;;;4969923;28;20406;-74
2022/12/07 04:54:16;;;;;;;342.70;136.37;;;;;;;;;;4975930;28;20328;-74
2022/12/07 04:56:42;;;;;;;322.17;123.53;;;;;;;;;;5001077;28;20516;-73
2022/12/07 04:59:08;;;;;;;492.63;170.73;;;;;;;;;;5001062;28;20199;-73
2022/12/07 05:01:34;;;;;;;324.20;125.80;;;;;;;;;;5001570;28;20338;-72
2022/12/07 05:04:00;;;;;;;492.23;181.87;;;;;;;;;;4972735;28;20319;-73
2022/12/07 05:06:26;;;;;;;438.63;169.50;;;;;;;;;;4991381;28;20212;-73
2022/12/07 05:08:52;;;;;;;474.80;161.23;;;;;;;;;;4995599;28;20224;-73
2022/12/07 05:14:04;;;;;;;502.07;191.30;;;;;;;;;;4992932;28;20557;-73
2022/12/07 05:16:30;;;;;;;355.30;134.60;;;;;;;;;;4977450;28;20185;-72
2022/12/07 05:18:56;;;;;;;398.43;147.23;;;;;;;;;;4984525;28;20713;-73
2022/12/07 05:21:23;;;;;;;517.80;183.90;;;;;;;;;;5001119;28;20703;-73
2022/12/07 05:23:49;;;;;;;508.83;188.27;;;;;;;;;;4994342;28;20315;-73
2022/12/07 05:26:14;;;;;;;489.43;171.03;;;;;;;;;;4997695;28;20632;-74
2022/12/07 05:28:41;;;;;;;386.23;139.57;;;;;;;;;;4977919;28;20234;-74
2022/12/07 05:31:07;;;;;;;393.47;145.53;;;;;;;;;;4973128;28;20613;-73
2022/12/07 05:33:32;;;;;;;410.17;160.50;;;;;;;;;;4964401;28;20390;-73
2022/12/07 05:35:58;;;;;;;464.47;168.37;;;;;;;;;;4992526;28;20230;-73
2022/12/07 05:38:25;;;;;;;523.43;193.70;;;;;;;;;;5001689;28;20615;-72
2022/12/07 05:40:51;;;;;;;430.30;157.50;;;;;;;;;;5008973;28;20238;-73
2022/12/07 05:43:17;;;;;;;496.13;179.03;;;;;;;;;;4999639;28;20221;-74
2022/12/07 05:45:42;;;;;;;363.53;132.40;;;;;;;;;;4989648;28;20219;-73
2022/12/07 05:48:08;;;;;;;473.07;170.97;;;;;;;;;;5002590;28;20243;-74
2022/12/07 05:50:38;;;;;;;383.53;146.13;;;;;;;;;;5005724;28;20701;-73
2022/12/07 05:53:04;;;;;;;318.03;125.90;;;;;;;;;;5012822;28;20664;-73
2022/12/07 05:55:30;;;;;;;472.67;169.60;;;;;;;;;;4994890;28;20275;-73
2022/12/07 06:00:40;;;;;;;448.20;155.70;;;;;;;;;;5006717;28;20211;-72
2022/12/07 06:03:06;;;;;;;480.77;170.97;;;;;;;;;;5000053;28;20645;-74
2022/12/07 06:05:32;;;;;;;499.37;177.87;;;;;;;;;;4990974;28;20308;-74
2022/12/07 06:07:58;;;;;;;403.13;157.53;;;;;;;;;;4989069;28;20307;-71
2022/12/07 06:10:24;;;;;;;536.67;198.20;;;;;;;;;;5005156;28;20189;-75
2022/12/07 06:12:50;;;;;;;404.30;131.03;;;;;;;;;;5013504;28;20250;-75
2022/12/07 06:15:16;;;;;;;430.57;149.27;;;;;;;;;;5016179;28;20212;-74
2022/12/07 06:17:42;;;;;;;457.27;159.47;;;;;;;;;;5010480;28;20216;-75
2022/12/07 06:20:08;;;;;;;431.50;153.63;;;;;;;;;;5015480;28;20204;-76
2022/12/07 06:22:34;;;;;;;546.20;196.50;;;;;;;;;;5017332;28;20681;-76
2022/12/07 06:25:01;;;;;;;376.17;147.37;;;;;;;;;;5014610;28;20689;-76
2022/12/07 06:27:27;;;;;;;347.90;124.53;;;;;;;;;;5000087;28;20673;-76
2022/12/07 06:29:53;;;;;;;375.57;132.97;;;;;;;;;;5017918;28;20316;-75
2022/12/07 06:32:19;;;;;;;450.57;149.27;;;;;;;;;;5017235;28;20214;-76
2022/12/07 06:34:46;;;;;;;522.47;190.07;;;;;;;;;;5008586;28;20187;-75
2022/12/07 06:37:15;;;;;;;625.43;230.03;;;;;;;;;;4984875;28;20240;-76
2022/12/07 06:39:54;;;;;;;419.93;147.27;;;;;;;;;;5000118;28;20224;-73
2022/12/07 06:42:21;;;;;;;482.37;162.77;;;;;;;;;;5006231;28;20220;-74
2022/12/07 06:44:47;;;;;;;476.43;155.03;;;;;;;;;;5018679;28;20213;-61
2022/12/07 06:47:13;;;;;;;484.80;175.00;;;;;;;;;;5016730;28;20216;-61
2022/12/07 06:49:38;;;;;;;378.50;138.30;;;;;;;;;;5018058;28;20188;-61
2022/12/07 06:52:05;;;;;;;551.93;197.20;;;;;;;;;;4983333;28;20286;-61
2022/12/07 06:54:31;;;;;;;549.80;178.43;;;;;;;;;;4992507;28;20250;-61
2022/12/07 06:56:57;;;;;;;399.97;142.30;;;;;;;;;;4983808;28;20260;-62
2022/12/07 06:59:23;;;;;;;489.03;151.40;;;;;;;;;;5001806;28;20252;-74
2022/12/07 07:01:49;;;;;;;529.93;181.77;;;;;;;;;;5010383;28;20192;-75
2022/12/07 07:04:15;;;;;;;391.57;136.90;;;;;;;;;;5011442;28;20281;-74
2022/12/07 07:06:41;;;;;;;497.53;174.63;;;;;;;;;;4986111;28;20214;-74
2022/12/07 07:09:07;;;;;;;437.90;158.07;;;;;;;;;;4986142;28;20364;-74
2022/12/07 07:11:33;;;;;;;443.53;154.97;;;;;;;;;;4990833;28;20700;-73
2022/12/07 07:14:02;;;;;;;505.83;173.03;;;;;;;;;;4988664;28;20192;-70
2022/12/07 07:16:28;;;;;;;535.80;183.07;;;;;;;;;;4996917;28;20184;-72
2022/12/07 07:18:54;;;;;;;600.03;216.77;;;;;;;;;;4997118;28;20224;-75
2022/12/07 07:21:20;;;;;;;427.80;149.03;;;;;;;;;;5010020;28;20709;-74
2022/12/07 07:23:46;;;;;;;497.47;181.97;;;;;;;;;;4977125;28;20227;-75
2022/12/07 07:26:12;;;;;;;421.40;152.00;;;;;;;;;;4994099;28;20633;-74
2022/12/07 07:28:38;;;;;;;524.43;180.37;;;;;;;;;;4988680;28;20212;-73
2022/12/07 07:31:05;;;;;;;533.93;183.87;;;;;;;;;;5003995;28;20242;-74
2022/12/07 07:33:32;;;;;;;433.37;161.80;;;;;;;;;;5002037;28;20220;-74
2022/12/07 07:35:58;;;;;;;562.20;216.13;;;;;;;;;;4980191;28;20223;-75
2022/12/07 07:38:24;;;;;;;363.57;143.03;;;;;;;;;;4982294;28;20224;-74
2022/12/07 07:40:50;;;;;;;522.53;199.67;;;;;;;;;;4975729;28;20204;-75
2022/12/07 07:43:17;;;;;;;496.20;190.73;;;;;;;;;;4985530;28;20288;-75
2022/12/07 07:45:45;;;;;;;401.17;155.60;;;;;;;;;;4989572;28;20231;-75
2022/12/07 07:48:11;;;;;;;443.17;165.33;;;;;;;;;;4994136;28;20434;-75
2022/12/07 07:50:38;;;;;;;444.97;167.97;;;;;;;;;;4977390;28;21271;-74
2022/12/07 07:53:05;;;;;;;457.77;167.23;;;;;;;;;;5008979;28;20194;-74
2022/12/07 07:55:32;;;;;;;462.57;161.57;;;;;;;;;;4981040;28;20176;-74
2022/12/07 07:57:58;;;;;;;585.07;219.33;;;;;;;;;;4973113;28;20320;-74
2022/12/07 08:00:24;;;;;;;556.70;229.40;;;;;;;;;;4963524;28;22417;-74
2022/12/07 08:02:50;;;;;;;536.17;221.23;;;;;;;;;;4972595;28;22499;-75
2022/12/07 08:05:16;;;;;;;398.83;164.50;;;;;;;;;;4991269;28;20228;-74
2022/12/07 08:07:43;;;;;;;453.63;189.37;;;;;;;;;;4989963;28;20197;-74
2022/12/07 08:10:10;;;;;;;499.30;205.00;;;;;;;;;;4991113;28;20239;-74
2022/12/07 08:13:10;;;;;;;439.53;183.93;;;;;;;;;;4995634;28;20358;-73
2022/12/07 08:15:23;;;;;;;424.67;174.90;;;;;;;;;;4992127;28;20308;-74
2022/12/07 08:17:49;;;;;;;431.50;173.87;;;;;;;;;;4977270;28;20240;-73
2022/12/07 08:20:15;;;;;;;403.37;169.67;;;;;;;;;;4997076;28;20678;-73
2022/12/07 08:22:41;;;;;;;423.67;166.33;;;;;;;;;;5002968;28;20523;-72
2022/12/07 08:25:07;;;;;;;548.73;215.00;;;;;;;;;;4994192;28;20274;-74
2022/12/07 08:27:33;;;;;;;474.50;195.10;;;;;;;;;;4974856;28;20292;-73
2022/12/07 08:29:59;;;;;;;448.73;176.37;;;;;;;;;;4997597;28;20657;-73
2022/12/07 08:32:25;;;;;;;447.10;177.93;;;;;;;;;;4982940;28;21459;-73
2022/12/07 08:34:52;;;;;;;574.10;232.03;;;;;;;;;;4996035;28;20192;-73
2022/12/07 08:37:18;;;;;;;578.30;226.57;;;;;;;;;;4990602;28;20322;-73
2022/12/07 08:39:44;;;;;;;474.00;193.60;;;;;;;;;;5004929;28;20220;-73
2022/12/07 08:42:10;;;;;;;427.53;165.73;;;;;;;;;;5000398;28;20228;-73
2022/12/07 08:44:36;;;;;;;498.53;206.23;;;;;;;;;;4998994;28;20612;-73
2022/12/07 08:47:04;;;;;;;546.97;221.17;;;;;;;;;;4993885;28;20250;-73
2022/12/07 08:49:56;;;;;;;485.83;193.60;;;;;;;;;;4998036;28;20275;-73
2022/12/07 08:52:22;;;;;;;507.70;193.10;;;;;;;;;;4998241;28;20704;-72
2022/12/07 08:54:49;;;;;;;463.23;187.93;;;;;;;;;;4997389;28;20219;-74
2022/12/07 08:57:15;;;;;;;469.37;182.13;;;;;;;;;;4994399;28;20223;-73
2022/12/07 08:59:41;;;;;;;421.97;151.93;;;;;;;;;;4969436;28;20272;-73
2022/12/07 09:02:07;;;;;;;503.27;187.57;;;;;;;;;;5001237;28;20200;-73
2022/12/07 09:04:33;;;;;;;671.17;261.13;;;;;;;;;;4978012;28;21076;-73
2022/12/07 09:06:59;;;;;;;464.60;177.77;;;;;;;;;;5005114;28;20216;-73
2022/12/07 09:09:25;;;;;;;539.37;194.47;;;;;;;;;;4984526;28;20563;-73
2022/12/07 09:11:51;;;;;;;416.10;148.07;;;;;;;;;;5002881;28;20210;-73
2022/12/07 09:14:18;;;;;;;513.33;192.30;;;;;;;;;;5001147;28;20767;-72
2022/12/07 09:16:44;;;;;;;475.37;182.80;;;;;;;;;;5006109;28;20171;-73
2022/12/07 09:19:10;;;;;;;530.70;201.50;;;;;;;;;;4996110;28;20213;-72
2022/12/07 09:21:36;;;;;;;516.10;199.13;;;;;;;;;;4997874;28;20234;-73
2022/12/07 09:24:02;;;;;;;422.00;170.93;;;;;;;;;;4986279;28;20224;-73
2022/12/07 09:26:28;;;;;;;464.37;171.87;;;;;;;;;;5003054;28;20740;-74
2022/12/07 09:28:54;;;;;;;485.07;176.57;;;;;;;;;;4995939;28;22193;-74
2022/12/07 09:31:20;;;;;;;594.97;216.30;;;;;;;;;;5005547;28;20323;-73
2022/12/07 09:33:46;;;;;;;643.03;241.87;;;;;;;;;;4984229;28;20277;-74
2022/12/07 09:36:12;;;;;;;563.60;195.27;;;;;;;;;;4996736;28;20553;-73
2022/12/07 09:38:38;;;;;;;444.07;164.67;;;;;;;;;;4999546;28;20228;-74
2022/12/07 09:41:05;;;;;;;549.40;208.03;;;;;;;;;;4981616;28;20370;-74
2022/12/07 09:43:31;;;;;;;566.07;212.13;;;;;;;;;;4993042;28;20283;-74
2022/12/07 09:45:57;;;;;;;352.33;148.40;;;;;;;;;;4971837;28;20611;-75
2022/12/07 09:48:25;;;;;;;510.50;205.13;;;;;;;;;;4995730;28;20500;-73
2022/12/07 09:50:52;;;;;;;490.77;196.37;;;;;;;;;;4984908;28;20551;-73
2022/12/07 09:53:26;;;;;;;483.63;202.47;;;;;;;;;;4980818;28;20613;-74
2022/12/07 09:55:52;;;;;;;534.60;216.23;;;;;;;;;;4970804;28;20673;-74
2022/12/07 09:58:21;;;;;;;542.03;221.73;;;;;;;;;;5002416;28;20228;-73
2022/12/07 10:00:47;;;;;;;461.50;193.23;;;;;;;;;;5000294;28;20217;-73
2022/12/07 10:03:13;;;;;;;441.40;173.53;;;;;;;;;;4998576;28;20263;-73
2022/12/07 10:05:41;;;;;;;483.47;197.93;;;;;;;;;;4974241;28;20229;-73
2022/12/07 10:08:12;;;;;;;461.30;179.83;;;;;;;;;;4973420;28;20271;-73
2022/12/07 10:10:39;;;;;;;519.43;213.30;;;;;;;;;;4977932;28;20189;-74
2022/12/07 10:13:09;;;;;;;412.30;167.77;;;;;;;;;;4974362;28;20358;-73
2022/12/07 10:15:49;;;;;;;492.27;203.83;;;;;;;;;;4958761;28;20217;-73
2022/12/07 10:18:36;;;;;;;524.17;185.43;;;;;;;;;;4979160;28;20225;-73
2022/12/07 10:21:02;;;;;;;588.93;200.63;;;;;;;;;;4984506;28;20221;-73
2022/12/07 10:23:29;;;;;;;485.33;170.30;;;;;;;;;;4959333;28;20217;-72
2022/12/07 10:25:55;;;;;;;628.63;213.93;;;;;;;;;;4976781;28;20189;-73
2022/12/07 10:28:21;;;;;;;478.27;172.23;;;;;;;;;;4983238;28;20197;-73
2022/12/07 10:30:48;;;;;;;531.47;189.90;;;;;;;;;;4982652;28;20213;-74
2022/12/07 10:33:31;;;;;;;485.90;182.20;;;;;;;;;;4972666;28;20216;-74
2022/12/07 10:35:57;;;;;;;588.67;213.00;;;;;;;;;;4984574;28;20290;-74
2022/12/07 10:38:25;;;;;;;597.83;222.47;;;;;;;;;;4972182;28;20231;-73
2022/12/07 10:41:03;;;;;;;468.03;174.50;;;;;;;;;;4979693;28;20244;-74
2022/12/07 10:43:29;;;;;;;550.40;221.67;;;;;;;;;;4972947;28;20263;-74
2022/12/07 10:46:20;;;;;;;442.30;173.70;;;;;;;;;;4975484;28;20259;-74
2022/12/07 10:48:54;;;;;;;499.00;189.80;;;;;;;;;;4973581;28;20297;-74
2022/12/07 10:51:20;;;;;;;565.57;229.47;;;;;;;;;;4975352;28;20323;-74
2022/12/07 10:54:05;;;;;;;450.63;192.47;;;;;;;;;;4979117;28;20648;-74
2022/12/07 10:56:40;;;;;;;477.50;173.07;;;;;;;;;;4982426;28;20220;-74
2022/12/07 10:59:15;;;;;;;419.97;151.90;;;;;;;;;;4987345;28;20201;-74
2022/12/07 11:01:45;;;;;;;508.37;187.43;;;;;;;;;;4996296;28;20188;-75
2022/12/07 11:04:30;;;;;;;382.97;154.30;;;;;;;;;;4982492;28;20225;-76
2022/12/07 11:06:59;;;;;;;626.20;230.97;;;;;;;;;;4959849;28;20213;-77
2022/12/07 11:09:25;;;;;;;459.90;189.53;;;;;;;;;;4974783;28;20214;-77
2022/12/07 11:11:56;;;;;;;483.13;186.13;;;;;;;;;;4977176;28;20231;-74
2022/12/07 11:14:29;;;;;;;505.23;181.33;;;;;;;;;;4993724;28;20563;-75
2022/12/07 11:16:59;;;;;;;405.20;154.10;;;;;;;;;;5006526;28;20173;-74
2022/12/07 11:19:28;;;;;;;432.50;156.57;;;;;;;;;;4992201;28;20176;-74
2022/12/07 11:21:57;;;;;;;493.53;181.87;;;;;;;;;;4997006;28;20260;-74
2022/12/07 11:24:28;;;;;;;433.43;157.67;;;;;;;;;;5002251;28;20259;-75
2022/12/07 11:26:57;;;;;;;365.93;141.37;;;;;;;;;;5002404;28;20624;-75
2022/12/07 11:29:43;;;;;;;375.10;139.33;;;;;;;;;;4998018;28;20215;-74
2022/12/07 11:32:15;;;;;;;470.13;180.93;;;;;;;;;;4996590;28;20200;-74
2022/12/07 11:34:47;;;;;;;593.47;238.80;;;;;;;;;;4983360;28;20194;-74
2022/12/07 11:37:26;;;;;;;515.23;219.40;;;;;;;;;;4972722;28;20217;-74
2022/12/07 11:39:55;;;;;;;540.93;214.43;;;;;;;;;;4967837;28;20239;-73
2022/12/07 11:42:30;;;;;;;520.07;210.83;;;;;;;;;;4971149;28;20322;-73
2022/12/07 11:45:11;;;;;;;597.80;241.13;;;;;;;;;;4976213;28;20231;-74
2022/12/07 11:47:46;;;;;;;496.00;190.00;;;;;;;;;;4971245;28;20438;-73
2022/12/07 11:50:24;;;;;;;426.80;174.93;;;;;;;;;;4969247;28;20288;-73
2022/12/07 11:53:26;;;;;;;461.77;175.07;;;;;;;;;;4992897;28;20217;-74
2022/12/07 11:55:55;;;;;;;410.63;161.27;;;;;;;;;;4905935;29;20242;-73
2022/12/07 11:58:22;;;;;;;544.73;215.73;;;;;;;;;;4955321;28;20578;-74
2022/12/07 12:00:50;;;;;;;389.00;159.67;;;;;;;;;;4975850;28;20363;-73
2022/12/07 12:03:20;;;;;;;563.70;220.83;;;;;;;;;;4982350;28;20562;-73
2022/12/07 12:05:47;;;;;;;479.83;179.57;;;;;;;;;;4984213;28;20550;-73
2022/12/07 12:08:22;;;;;;;425.20;174.00;;;;;;;;;;4982105;28;20204;-74
2022/12/07 12:11:00;;;;;;;557.60;213.70;;;;;;;;;;4982382;28;20545;-74
2022/12/07 12:13:45;;;;;;;505.90;203.40;;;;;;;;;;4970628;28;20551;-74
2022/12/07 12:16:34;;;;;;;449.80;174.40;;;;;;;;;;4980839;28;20891;-72
2022/12/07 12:19:07;;;;;;;569.50;228.70;;;;;;;;;;4963463;28;20615;-73
2022/12/07 12:21:34;;;;;;;465.30;181.80;;;;;;;;;;4972732;28;20224;-74
2022/12/07 12:24:03;;;;;;;468.83;187.73;;;;;;;;;;4972717;28;20228;-73
2022/12/07 12:26:31;;;;;;;501.97;196.17;;;;;;;;;;4968030;28;20238;-73
2022/12/07 12:28:58;;;;;;;594.77;250.10;;;;;;;;;;4967907;28;20228;-73
2022/12/07 12:31:24;;;;;;;481.93;187.30;;;;;;;;;;4972730;28;20217;-73
2022/12/07 12:34:01;;;;;;;459.10;185.90;;;;;;;;;;4973741;28;20729;-74
2022/12/07 12:36:42;;;;;;;396.57;155.93;;;;;;;;;;4965978;28;20216;-73
2022/12/07 12:39:10;;;;;;;558.73;224.97;;;;;;;;;;4966004;28;20233;-74
2022/12/07 12:42:05;;;;;;;566.03;219.60;;;;;;;;;;4966767;28;21064;-73
2022/12/07 12:44:33;;;;;;;572.97;232.63;;;;;;;;;;4966584;28;20233;-74
2022/12/07 12:47:18;;;;;;;506.13;209.90;;;;;;;;;;4966775;28;20189;-74
2022/12/07 12:50:05;;;;;;;473.77;183.60;;;;;;;;;;4978388;28;20756;-73
2022/12/07 12:52:30;;;;;;;479.83;181.73;;;;;;;;;;5020667;28;20700;-73
2022/12/07 12:55:02;;;;;;;432.53;170.93;;;;;;;;;;5012252;28;20223;-73
2022/12/07 12:57:29;;;;;;;547.27;218.63;;;;;;;;;;5004473;28;20719;-73
2022/12/07 12:59:55;;;;;;;667.57;274.73;;;;;;;;;;5004877;28;20723;-73
2022/12/07 13:02:38;;;;;;;538.77;199.97;;;;;;;;;;5021231;28;20498;-74
2022/12/07 13:05:09;;;;;;;417.23;161.30;;;;;;;;;;5023816;28;20222;-73
2022/12/07 13:07:50;;;;;;;481.70;197.37;;;;;;;;;;5026866;28;20208;-74
2022/12/07 13:10:31;;;;;;;573.60;222.80;;;;;;;;;;4997262;28;20263;-74
2022/12/07 13:13:01;;;;;;;675.80;288.43;;;;;;;;;;4988630;28;20407;-73
2022/12/07 13:15:33;;;;;;;473.20;190.10;;;;;;;;;;5010438;28;20561;-74
2022/12/07 13:18:01;;;;;;;487.67;195.33;;;;;;;;;;4999026;28;20353;-74
2022/12/07 13:20:46;;;;;;;433.90;176.70;;;;;;;;;;4996041;28;20266;-74
2022/12/07 13:23:13;;;;;;;433.87;176.60;;;;;;;;;;5019813;28;20319;-74
2022/12/07 13:25:46;;;;;;;587.30;231.10;;;;;;;;;;5022478;28;20270;-74
2022/12/07 13:28:17;;;;;;;460.33;183.53;;;;;;;;;;5003656;28;20249;-74
2022/12/07 13:30:51;;;;;;;491.50;200.23;;;;;;;;;;5013453;28;20316;-74
2022/12/07 13:33:19;;;;;;;549.43;215.17;;;;;;;;;;5002814;28;20215;-73
2022/12/07 13:35:45;;;;;;;642.67;264.00;;;;;;;;;;4987008;28;20465;-73
2022/12/07 13:38:19;;;;;;;450.40;178.57;;;;;;;;;;5016105;28;20259;-74
2022/12/07 13:40:59;;;;;;;431.13;188.07;;;;;;;;;;4995305;28;20254;-74
2022/12/07 13:43:25;;;;;;;563.10;223.07;;;;;;;;;;5013423;28;20302;-74
2022/12/07 13:45:57;;;;;;;554.23;231.07;;;;;;;;;;5016036;28;20657;-74
2022/12/07 13:48:34;;;;;;;398.27;163.73;;;;;;;;;;4998675;28;20779;-74
2022/12/07 13:51:01;;;;;;;491.30;192.33;;;;;;;;;;5006382;28;20322;-75
2022/12/07 13:53:30;;;;;;;475.27;183.13;;;;;;;;;;5003901;28;20223;-74
2022/12/07 13:55:57;;;;;;;555.63;211.83;;;;;;;;;;5023426;28;20202;-74
2022/12/07 13:58:23;;;;;;;517.20;195.20;;;;;;;;;;5017727;28;20204;-74
2022/12/07 14:00:49;;;;;;;418.40;176.00;;;;;;;;;;5005031;28;20324;-74
2022/12/07 14:03:15;;;;;;;559.53;231.23;;;;;;;;;;4998670;28;20274;-74
2022/12/07 14:05:42;;;;;;;434.17;174.20;;;;;;;;;;5021201;28;20220;-74
2022/12/07 14:08:11;;;;;;;542.13;214.97;;;;;;;;;;5000823;28;20282;-74
2022/12/07 14:10:39;;;;;;;443.27;171.43;;;;;;;;;;5040342;28;20184;-73